Corpus Christi — WDC2785 — position and weather

sailwx.info

Track history (hours):
 
Tides and Currents Weather Stations Pressure Air Temp Water Temp Dewpoint Dewpoint Depression Visibility Wind Speed Wind Dir Waves Ship Positions

Corpus Christi

Owner: Marquette Transportation Company Gulf-Inland, LLC, Jefferson, LA. More information available from US FCC via Universal Licensing System and Coast Guard Vessel Documentation Center.

Last reported at 2017-Nov-16 20:45 UTC. Time now 2017-Nov-17 19:42 UTC.
Position N 29°32' W 094°54'.

Length 116 m; draft 2.7 m.

Type: . MMSI: 366997690.

Date/timePositionNaut miles runAvg speedWind from/ knotsBaromVisibWave heightAir tempDewpointWater temp
2017-Nov-16 20:45N 29°32' W 094°54'1 5.0
2017-Nov-16 20:30N 29°33' W 094°55'2 4.9
2017-Nov-16 20:00N 29°35' W 094°57'3 5.3
2017-Nov-16 19:30N 29°38' W 094°58'3 6.3
2017-Nov-16 18:59N 29°41' W 094°59'3 5.8
2017-Nov-16 18:24N 29°44' W 095°01'1 0.2
2017-Nov-16 11:13N 29°44' W 095°03'2 4.7
2017-Nov-16 10:45N 29°42' W 095°01'1 5.7
2017-Nov-16 10:30N 29°42' W 094°60'4 5.6
2017-Nov-16 09:45N 29°38' W 094°58'1 5.7
2017-Nov-16 09:30N 29°37' W 094°57'3 5.8
2017-Nov-16 09:00N 29°34' W 094°55'  
2017-Nov-12 02:34N 29°33' W 094°55'0 7.1
2017-Nov-12 02:30N 29°33' W 094°55'4 7.1
2017-Nov-12 01:59N 29°36' W 094°57'4 7.4
2017-Nov-12 01:31N 29°40' W 094°58'4 7.2
2017-Nov-12 01:00N 29°43' W 095°01'3 6.1
2017-Nov-12 00:28N 29°45' W 095°04'0 0.0
2017-Nov-11 12:49N 29°45' W 095°04'3 5.1
2017-Nov-11 12:10N 29°43' W 095°01'1 5.0
2017-Nov-11 12:00N 29°42' W 095°00'5 5.4
2017-Nov-11 11:09N 29°38' W 094°58'1 5.9
2017-Nov-11 10:59N 29°37' W 094°57'3 5.6
2017-Nov-11 10:31N 29°35' W 094°56'3 5.7
2017-Nov-11 10:01N 29°32' W 094°54'1 0.0
2017-Nov-10 00:13N 29°33' W 094°55'1 5.8
2017-Nov-09 23:59N 29°34' W 094°55'3 5.5
2017-Nov-09 23:30N 29°36' W 094°57'3 5.9
2017-Nov-09 23:01N 29°39' W 094°58'3 6.3
2017-Nov-09 22:30N 29°42' W 094°60'3 5.3
2017-Nov-09 21:54N 29°44' W 095°03'2 0.0
2017-Nov-08 07:40N 29°43' W 095°01'1 5.8
2017-Nov-08 07:29N 29°42' W 095°01'3 6.3
2017-Nov-08 07:00N 29°40' W 094°58'3 6.9
2017-Nov-08 06:30N 29°37' W 094°57'3 6.9
2017-Nov-08 06:00N 29°34' W 094°55'  
Track history (hours):
 
Tides and Currents Weather Stations Pressure Air Temp Water Temp Dewpoint Dewpoint Depression Visibility Wind Speed Wind Dir Waves Ship Positions

Corpus Christi

Owner: Marquette Transportation Company Gulf-Inland, LLC, Jefferson, LA. More information available from US FCC via Universal Licensing System and Coast Guard Vessel Documentation Center.

Last reported at 2017-Nov-16 20:45 UTC. Time now 2017-Nov-17 19:42 UTC.
Position N 29°32' W 094°54'.

Length 116 m; draft 2.7 m.

Type: . MMSI: 366997690.

Date/timePositionNaut miles runAvg speedWind from/ knotsBaromVisibWave heightAir tempDewpointWater temp
2017-Nov-16 20:45N 29°32' W 094°54'1 5.0
2017-Nov-16 20:30N 29°33' W 094°55'2 4.9
2017-Nov-16 20:00N 29°35' W 094°57'3 5.3
2017-Nov-16 19:30N 29°38' W 094°58'3 6.3
2017-Nov-16 18:59N 29°41' W 094°59'3 5.8
2017-Nov-16 18:24N 29°44' W 095°01'1 0.2
2017-Nov-16 11:13N 29°44' W 095°03'2 4.7
2017-Nov-16 10:45N 29°42' W 095°01'1 5.7
2017-Nov-16 10:30N 29°42' W 094°60'4 5.6
2017-Nov-16 09:45N 29°38' W 094°58'1 5.7
2017-Nov-16 09:30N 29°37' W 094°57'3 5.8
2017-Nov-16 09:00N 29°34' W 094°55'  
2017-Nov-12 02:34N 29°33' W 094°55'0 7.1
2017-Nov-12 02:30N 29°33' W 094°55'4 7.1
2017-Nov-12 01:59N 29°36' W 094°57'4 7.4
2017-Nov-12 01:31N 29°40' W 094°58'4 7.2
2017-Nov-12 01:00N 29°43' W 095°01'3 6.1
2017-Nov-12 00:28N 29°45' W 095°04'0 0.0
2017-Nov-11 12:49N 29°45' W 095°04'3 5.1
2017-Nov-11 12:10N 29°43' W 095°01'1 5.0
2017-Nov-11 12:00N 29°42' W 095°00'5 5.4
2017-Nov-11 11:09N 29°38' W 094°58'1 5.9
2017-Nov-11 10:59N 29°37' W 094°57'3 5.6
2017-Nov-11 10:31N 29°35' W 094°56'3 5.7
2017-Nov-11 10:01N 29°32' W 094°54'1 0.0
2017-Nov-10 00:13N 29°33' W 094°55'1 5.8
2017-Nov-09 23:59N 29°34' W 094°55'3 5.5
2017-Nov-09 23:30N 29°36' W 094°57'3 5.9
2017-Nov-09 23:01N 29°39' W 094°58'3 6.3
2017-Nov-09 22:30N 29°42' W 094°60'3 5.3
2017-Nov-09 21:54N 29°44' W 095°03'2 0.0
2017-Nov-08 07:40N 29°43' W 095°01'1 5.8
2017-Nov-08 07:29N 29°42' W 095°01'3 6.3
2017-Nov-08 07:00N 29°40' W 094°58'3 6.9
2017-Nov-08 06:30N 29°37' W 094°57'3 6.9
2017-Nov-08 06:00N 29°34' W 094°55'  

Dump ship's entire track history